sensor_id;sensor_type;location;lat;lon;timestamp;P1;durP1;ratioP1;P2;durP2;ratioP2
1677;SDS011;6034;46.864;15.216;2024-01-07T07:16:42;5.80;;;4.55;;
1677;SDS011;6034;46.864;15.216;2024-01-07T07:19:10;7.10;;;4.70;;
1677;SDS011;6034;46.864;15.216;2024-01-07T07:21:40;4.03;;;3.50;;
1677;SDS011;6034;46.864;15.216;2024-01-07T07:24:08;4.70;;;4.20;;
1677;SDS011;6034;46.864;15.216;2024-01-07T07:26:35;7.50;;;4.50;;
1677;SDS011;6034;46.864;15.216;2024-01-07T07:29:06;5.25;;;4.68;;
1677;SDS011;6034;46.864;15.216;2024-01-07T07:31:34;5.18;;;4.10;;
1677;SDS011;6034;46.864;15.216;2024-01-07T07:34:04;6.25;;;5.63;;
1677;SDS011;6034;46.864;15.216;2024-01-07T07:36:32;6.20;;;4.78;;
1677;SDS011;6034;46.864;15.216;2024-01-07T07:39:00;5.88;;;5.22;;
1677;SDS011;6034;46.864;15.216;2024-01-07T07:41:27;7.00;;;5.75;;
1677;SDS011;6034;46.864;15.216;2024-01-07T07:43:55;6.32;;;5.00;;
1677;SDS011;6034;46.864;15.216;2024-01-07T07:46:22;6.45;;;4.60;;
1677;SDS011;6034;46.864;15.216;2024-01-07T07:48:49;5.78;;;4.72;;
1677;SDS011;6034;46.864;15.216;2024-01-07T07:51:18;6.45;;;4.70;;
1677;SDS011;6034;46.864;15.216;2024-01-07T07:53:45;5.10;;;3.75;;
1677;SDS011;6034;46.864;15.216;2024-01-07T07:56:13;5.32;;;4.20;;
1677;SDS011;6034;46.864;15.216;2024-01-07T07:58:40;4.20;;;3.80;;
1677;SDS011;6034;46.864;15.216;2024-01-07T08:01:08;5.35;;;4.30;;
1677;SDS011;6034;46.864;15.216;2024-01-07T08:03:35;4.50;;;4.07;;
1677;SDS011;6034;46.864;15.216;2024-01-07T08:06:03;5.53;;;4.40;;
1677;SDS011;6034;46.864;15.216;2024-01-07T08:08:32;4.32;;;3.83;;
1677;SDS011;6034;46.864;15.216;2024-01-07T08:11:00;4.90;;;4.47;;
1677;SDS011;6034;46.864;15.216;2024-01-07T08:13:28;4.47;;;4.00;;
1677;SDS011;6034;46.864;15.216;2024-01-07T08:15:55;5.70;;;4.22;;
1677;SDS011;6034;46.864;15.216;2024-01-07T08:18:22;4.13;;;3.20;;
1677;SDS011;6034;46.864;15.216;2024-01-07T08:20:50;4.93;;;4.05;;
1677;SDS011;6034;46.864;15.216;2024-01-07T08:23:17;4.75;;;4.20;;
1677;SDS011;6034;46.864;15.216;2024-01-07T08:25:46;5.05;;;4.25;;
1677;SDS011;6034;46.864;15.216;2024-01-07T08:28:13;5.13;;;3.70;;
1677;SDS011;6034;46.864;15.216;2024-01-07T08:30:41;6.82;;;4.65;;
1677;SDS011;6034;46.864;15.216;2024-01-07T08:33:08;42.28;;;23.63;;
1677;SDS011;6034;46.864;15.216;2024-01-07T08:35:36;26.13;;;20.20;;
1677;SDS011;6034;46.864;15.216;2024-01-07T08:38:03;140.02;;;73.40;;
1677;SDS011;6034;46.864;15.216;2024-01-07T08:40:31;39.80;;;24.95;;
1677;SDS011;6034;46.864;15.216;2024-01-07T08:43:06;14.30;;;9.95;;
1677;SDS011;6034;46.864;15.216;2024-01-07T08:45:38;7.88;;;7.07;;
1677;SDS011;6034;46.864;15.216;2024-01-07T08:48:05;3.70;;;3.15;;
1677;SDS011;6034;46.864;15.216;2024-01-07T08:50:35;3.80;;;3.40;;
1677;SDS011;6034;46.864;15.216;2024-01-07T08:53:02;3.10;;;2.80;;
1677;SDS011;6034;46.864;15.216;2024-01-07T08:55:30;4.38;;;4.07;;
1677;SDS011;6034;46.864;15.216;2024-01-07T08:57:57;4.43;;;4.03;;
1677;SDS011;6034;46.864;15.216;2024-01-07T09:00:26;5.00;;;2.97;;
1677;SDS011;6034;46.864;15.216;2024-01-07T09:02:56;2.80;;;2.45;;
1677;SDS011;6034;46.864;15.216;2024-01-07T09:05:23;3.35;;;2.33;;
1677;SDS011;6034;46.864;15.216;2024-01-07T09:07:51;2.58;;;2.35;;
1677;SDS011;6034;46.864;15.216;2024-01-07T09:10:18;4.68;;;2.83;;
1677;SDS011;6034;46.864;15.216;2024-01-07T09:12:46;3.05;;;2.75;;
1677;SDS011;6034;46.864;15.216;2024-01-07T09:15:15;5.93;;;2.88;;
1677;SDS011;6034;46.864;15.216;2024-01-07T09:17:46;3.65;;;2.90;;
1677;SDS011;6034;46.864;15.216;2024-01-07T09:20:14;3.20;;;2.75;;
1677;SDS011;6034;46.864;15.216;2024-01-07T09:22:41;3.15;;;2.50;;
1677;SDS011;6034;46.864;15.216;2024-01-07T09:25:09;3.55;;;2.40;;
1677;SDS011;6034;46.864;15.216;2024-01-07T09:27:37;3.45;;;2.67;;
1677;SDS011;6034;46.864;15.216;2024-01-07T09:30:06;3.50;;;2.67;;
1677;SDS011;6034;46.864;15.216;2024-01-07T09:32:36;3.40;;;2.80;;
1677;SDS011;6034;46.864;15.216;2024-01-07T09:35:05;3.80;;;2.67;;
1677;SDS011;6034;46.864;15.216;2024-01-07T09:37:33;3.33;;;2.30;;
1677;SDS011;6034;46.864;15.216;2024-01-07T09:40:02;7.90;;;2.80;;
1677;SDS011;6034;46.864;15.216;2024-01-07T09:42:31;5.65;;;3.15;;
1677;SDS011;6034;46.864;15.216;2024-01-07T09:44:59;3.97;;;2.40;;
1677;SDS011;6034;46.864;15.216;2024-01-07T09:47:29;3.20;;;2.30;;
1677;SDS011;6034;46.864;15.216;2024-01-07T09:49:57;3.90;;;2.35;;
1677;SDS011;6034;46.864;15.216;2024-01-07T09:52:26;6.18;;;3.45;;
1677;SDS011;6034;46.864;15.216;2024-01-07T09:54:56;4.05;;;3.20;;
1677;SDS011;6034;46.864;15.216;2024-01-07T09:57:29;4.45;;;2.70;;
1677;SDS011;6034;46.864;15.216;2024-01-07T09:59:56;5.18;;;3.20;;
1677;SDS011;6034;46.864;15.216;2024-01-07T10:02:24;3.38;;;3.08;;
1677;SDS011;6034;46.864;15.216;2024-01-07T10:04:51;2.55;;;2.35;;
1677;SDS011;6034;46.864;15.216;2024-01-07T10:07:18;2.90;;;2.20;;
1677;SDS011;6034;46.864;15.216;2024-01-07T10:09:47;2.63;;;2.42;;
1677;SDS011;6034;46.864;15.216;2024-01-07T10:12:14;2.95;;;2.30;;
1677;SDS011;6034;46.864;15.216;2024-01-07T10:14:42;3.15;;;2.10;;
1677;SDS011;6034;46.864;15.216;2024-01-07T10:17:16;2.65;;;1.98;;
1677;SDS011;6034;46.864;15.216;2024-01-07T10:19:44;3.60;;;2.88;;
1677;SDS011;6034;46.864;15.216;2024-01-07T10:22:12;2.90;;;2.28;;
1677;SDS011;6034;46.864;15.216;2024-01-07T10:24:41;3.65;;;2.33;;
1677;SDS011;6034;46.864;15.216;2024-01-07T10:27:11;2.97;;;2.10;;
1677;SDS011;6034;46.864;15.216;2024-01-07T10:29:38;2.38;;;1.90;;
1677;SDS011;6034;46.864;15.216;2024-01-07T10:32:06;2.83;;;2.47;;
1677;SDS011;6034;46.864;15.216;2024-01-07T10:34:33;4.55;;;3.00;;
1677;SDS011;6034;46.864;15.216;2024-01-07T10:37:02;7.57;;;2.60;;
1677;SDS011;6034;46.864;15.216;2024-01-07T10:39:31;2.70;;;2.50;;
1677;SDS011;6034;46.864;15.216;2024-01-07T10:41:58;2.95;;;2.35;;
1677;SDS011;6034;46.864;15.216;2024-01-07T10:44:29;2.97;;;2.17;;
1677;SDS011;6034;46.864;15.216;2024-01-07T10:46:57;3.15;;;2.13;;
1677;SDS011;6034;46.864;15.216;2024-01-07T10:49:26;2.17;;;1.92;;
1677;SDS011;6034;46.864;15.216;2024-01-07T10:52:02;2.47;;;2.25;;
1677;SDS011;6034;46.864;15.216;2024-01-07T10:54:31;2.60;;;1.95;;
1677;SDS011;6034;46.864;15.216;2024-01-07T10:57:00;2.10;;;1.90;;
1677;SDS011;6034;46.864;15.216;2024-01-07T10:59:38;4.10;;;2.17;;
1677;SDS011;6034;46.864;15.216;2024-01-07T11:02:11;4.28;;;2.70;;
1677;SDS011;6034;46.864;15.216;2024-01-07T11:04:45;3.20;;;2.90;;
1677;SDS011;6034;46.864;15.216;2024-01-07T11:07:19;4.53;;;3.45;;
1677;SDS011;6034;46.864;15.216;2024-01-07T11:10:01;3.75;;;3.35;;
1677;SDS011;6034;46.864;15.216;2024-01-07T11:12:32;4.07;;;3.65;;
1677;SDS011;6034;46.864;15.216;2024-01-07T11:15:02;3.63;;;3.33;;
1677;SDS011;6034;46.864;15.216;2024-01-07T11:17:41;5.03;;;3.65;;
1677;SDS011;6034;46.864;15.216;2024-01-07T11:20:18;3.92;;;3.15;;
1677;SDS011;6034;46.864;15.216;2024-01-07T11:22:47;3.92;;;3.50;;
1677;SDS011;6034;46.864;15.216;2024-01-07T11:27:58;4.10;;;3.17;;
1677;SDS011;6034;46.864;15.216;2024-01-07T11:30:28;3.55;;;2.88;;
1677;SDS011;6034;46.864;15.216;2024-01-07T11:32:58;4.00;;;3.60;;
1677;SDS011;6034;46.864;15.216;2024-01-07T11:38:22;3.20;;;2.85;;
1677;SDS011;6034;46.864;15.216;2024-01-07T11:40:50;33.33;;;25.25;;
1677;SDS011;6034;46.864;15.216;2024-01-07T11:43:18;15.43;;;13.85;;
1677;SDS011;6034;46.864;15.216;2024-01-07T11:45:49;7.20;;;6.32;;
1677;SDS011;6034;46.864;15.216;2024-01-07T11:48:17;5.35;;;3.63;;
1677;SDS011;6034;46.864;15.216;2024-01-07T11:50:45;3.45;;;3.15;;
1677;SDS011;6034;46.864;15.216;2024-01-07T11:53:12;7.80;;;5.63;;
1677;SDS011;6034;46.864;15.216;2024-01-07T11:55:39;11.70;;;8.45;;
1677;SDS011;6034;46.864;15.216;2024-01-07T11:58:07;9.25;;;7.40;;
1677;SDS011;6034;46.864;15.216;2024-01-07T12:00:34;5.65;;;4.50;;
1677;SDS011;6034;46.864;15.216;2024-01-07T12:03:03;7.85;;;7.25;;
1677;SDS011;6034;46.864;15.216;2024-01-07T12:05:31;4.57;;;4.15;;
1677;SDS011;6034;46.864;15.216;2024-01-07T12:08:00;3.70;;;3.40;;
1677;SDS011;6034;46.864;15.216;2024-01-07T12:10:28;4.38;;;3.72;;
1677;SDS011;6034;46.864;15.216;2024-01-07T12:12:56;6.28;;;4.60;;
1677;SDS011;6034;46.864;15.216;2024-01-07T12:15:23;4.95;;;4.32;;
1677;SDS011;6034;46.864;15.216;2024-01-07T12:17:57;6.15;;;4.78;;
1677;SDS011;6034;46.864;15.216;2024-01-07T12:20:28;4.45;;;4.05;;
1677;SDS011;6034;46.864;15.216;2024-01-07T12:22:56;4.30;;;3.90;;
1677;SDS011;6034;46.864;15.216;2024-01-07T12:25:24;4.07;;;3.67;;
1677;SDS011;6034;46.864;15.216;2024-01-07T12:27:52;4.85;;;4.38;;
1677;SDS011;6034;46.864;15.216;2024-01-07T12:30:20;4.50;;;3.63;;
1677;SDS011;6034;46.864;15.216;2024-01-07T12:32:47;6.13;;;4.35;;
1677;SDS011;6034;46.864;15.216;2024-01-07T12:35:17;4.60;;;3.92;;
1677;SDS011;6034;46.864;15.216;2024-01-07T12:37:47;4.50;;;4.10;;
1677;SDS011;6034;46.864;15.216;2024-01-07T12:40:15;4.53;;;4.13;;
1677;SDS011;6034;46.864;15.216;2024-01-07T12:42:42;4.50;;;4.10;;
1677;SDS011;6034;46.864;15.216;2024-01-07T12:45:11;4.85;;;3.60;;
1677;SDS011;6034;46.864;15.216;2024-01-07T12:47:39;4.07;;;3.65;;
1677;SDS011;6034;46.864;15.216;2024-01-07T12:50:07;4.80;;;3.90;;
1677;SDS011;6034;46.864;15.216;2024-01-07T12:52:36;4.10;;;3.70;;
1677;SDS011;6034;46.864;15.216;2024-01-07T12:55:06;3.85;;;3.20;;
1677;SDS011;6034;46.864;15.216;2024-01-07T12:57:34;4.28;;;3.85;;
1677;SDS011;6034;46.864;15.216;2024-01-07T13:00:02;4.20;;;3.28;;
1677;SDS011;6034;46.864;15.216;2024-01-07T13:02:32;3.33;;;3.03;;
1677;SDS011;6034;46.864;15.216;2024-01-07T13:05:01;13.00;;;8.65;;
1677;SDS011;6034;46.864;15.216;2024-01-07T13:07:29;31.00;;;20.73;;
1677;SDS011;6034;46.864;15.216;2024-01-07T13:09:56;31.50;;;21.40;;
1677;SDS011;6034;46.864;15.216;2024-01-07T13:12:25;26.85;;;16.20;;
1677;SDS011;6034;46.864;15.216;2024-01-07T13:14:53;8.45;;;5.78;;
1677;SDS011;6034;46.864;15.216;2024-01-07T13:17:20;4.55;;;4.00;;
1677;SDS011;6034;46.864;15.216;2024-01-07T13:19:47;5.13;;;4.25;;
1677;SDS011;6034;46.864;15.216;2024-01-07T13:22:15;4.53;;;3.63;;
1677;SDS011;6034;46.864;15.216;2024-01-07T13:24:42;4.28;;;3.88;;
1677;SDS011;6034;46.864;15.216;2024-01-07T13:27:09;3.78;;;3.20;;
1677;SDS011;6034;46.864;15.216;2024-01-07T13:29:38;4.72;;;3.95;;
1677;SDS011;6034;46.864;15.216;2024-01-07T13:32:06;6.68;;;5.18;;
1677;SDS011;6034;46.864;15.216;2024-01-07T13:34:33;4.60;;;4.15;;
1677;SDS011;6034;46.864;15.216;2024-01-07T13:37:01;4.32;;;3.55;;
1677;SDS011;6034;46.864;15.216;2024-01-07T13:39:29;3.53;;;3.00;;
1677;SDS011;6034;46.864;15.216;2024-01-07T13:41:57;5.40;;;3.42;;
1677;SDS011;6034;46.864;15.216;2024-01-07T13:44:24;3.70;;;3.28;;
1677;SDS011;6034;46.864;15.216;2024-01-07T13:46:53;3.80;;;3.50;;
1677;SDS011;6034;46.864;15.216;2024-01-07T13:49:20;4.15;;;3.10;;
1677;SDS011;6034;46.864;15.216;2024-01-07T13:51:47;3.40;;;2.95;;
1677;SDS011;6034;46.864;15.216;2024-01-07T13:54:15;4.10;;;3.35;;
1677;SDS011;6034;46.864;15.216;2024-01-07T13:56:42;3.10;;;2.80;;
1677;SDS011;6034;46.864;15.216;2024-01-07T13:59:09;3.80;;;3.40;;
1677;SDS011;6034;46.864;15.216;2024-01-07T14:01:37;4.00;;;3.38;;
1677;SDS011;6034;46.864;15.216;2024-01-07T14:04:09;4.65;;;3.60;;
1677;SDS011;6034;46.864;15.216;2024-01-07T14:06:36;4.40;;;4.00;;
1677;SDS011;6034;46.864;15.216;2024-01-07T14:09:03;6.07;;;4.05;;
1677;SDS011;6034;46.864;15.216;2024-01-07T14:11:33;5.93;;;3.38;;
1677;SDS011;6034;46.864;15.216;2024-01-07T14:14:01;4.90;;;4.38;;
1677;SDS011;6034;46.864;15.216;2024-01-07T14:16:28;7.85;;;4.78;;
1677;SDS011;6034;46.864;15.216;2024-01-07T14:18:56;6.60;;;5.72;;
1677;SDS011;6034;46.864;15.216;2024-01-07T14:21:24;4.72;;;4.32;;
1677;SDS011;6034;46.864;15.216;2024-01-07T14:23:52;6.13;;;4.25;;
1677;SDS011;6034;46.864;15.216;2024-01-07T14:26:19;4.97;;;4.47;;
1677;SDS011;6034;46.864;15.216;2024-01-07T14:28:48;5.25;;;4.75;;
1677;SDS011;6034;46.864;15.216;2024-01-07T14:31:16;4.88;;;4.40;;
1677;SDS011;6034;46.864;15.216;2024-01-07T14:33:43;4.50;;;3.90;;
1677;SDS011;6034;46.864;15.216;2024-01-07T14:36:11;4.43;;;4.03;;
1677;SDS011;6034;46.864;15.216;2024-01-07T14:38:43;4.57;;;3.90;;
1677;SDS011;6034;46.864;15.216;2024-01-07T14:41:12;6.30;;;4.20;;
1677;SDS011;6034;46.864;15.216;2024-01-07T14:43:40;4.93;;;4.43;;
1677;SDS011;6034;46.864;15.216;2024-01-07T14:46:07;5.47;;;3.95;;
1677;SDS011;6034;46.864;15.216;2024-01-07T14:48:35;4.93;;;4.43;;
1677;SDS011;6034;46.864;15.216;2024-01-07T14:51:03;4.50;;;3.97;;
1677;SDS011;6034;46.864;15.216;2024-01-07T14:53:30;17.33;;;4.72;;
1677;SDS011;6034;46.864;15.216;2024-01-07T14:56:00;3.95;;;3.65;;
1677;SDS011;6034;46.864;15.216;2024-01-07T14:58:27;4.82;;;4.40;;
1677;SDS011;6034;46.864;15.216;2024-01-07T15:00:54;4.93;;;4.40;;
1677;SDS011;6034;46.864;15.216;2024-01-07T15:03:23;5.35;;;4.85;;
1677;SDS011;6034;46.864;15.216;2024-01-07T15:05:50;7.72;;;5.00;;
1677;SDS011;6034;46.864;15.216;2024-01-07T15:08:18;7.68;;;4.75;;
1677;SDS011;6034;46.864;15.216;2024-01-07T15:10:45;6.93;;;4.80;;
1677;SDS011;6034;46.864;15.216;2024-01-07T15:13:14;4.85;;;4.43;;
1677;SDS011;6034;46.864;15.216;2024-01-07T15:15:42;4.53;;;3.78;;
1677;SDS011;6034;46.864;15.216;2024-01-07T15:18:09;6.47;;;5.20;;
1677;SDS011;6034;46.864;15.216;2024-01-07T15:20:37;3.70;;;3.22;;
1677;SDS011;6034;46.864;15.216;2024-01-07T15:23:04;3.45;;;2.85;;
1677;SDS011;6034;46.864;15.216;2024-01-07T15:25:31;5.15;;;2.63;;
1677;SDS011;6034;46.864;15.216;2024-01-07T15:27:59;4.00;;;2.90;;
1677;SDS011;6034;46.864;15.216;2024-01-07T15:30:27;5.60;;;4.45;;
1677;SDS011;6034;46.864;15.216;2024-01-07T15:32:55;8.13;;;7.32;;
1677;SDS011;6034;46.864;15.216;2024-01-07T15:35:22;7.07;;;6.38;;
1677;SDS011;6034;46.864;15.216;2024-01-07T15:37:50;7.10;;;5.50;;
1677;SDS011;6034;46.864;15.216;2024-01-07T15:40:20;6.35;;;5.75;;
1677;SDS011;6034;46.864;15.216;2024-01-07T15:42:47;6.00;;;4.72;;
1677;SDS011;6034;46.864;15.216;2024-01-07T15:45:14;8.35;;;6.32;;
1677;SDS011;6034;46.864;15.216;2024-01-07T15:47:43;8.10;;;7.30;;
1677;SDS011;6034;46.864;15.216;2024-01-07T15:50:10;6.43;;;5.15;;
1677;SDS011;6034;46.864;15.216;2024-01-07T15:52:38;5.70;;;3.63;;
1677;SDS011;6034;46.864;15.216;2024-01-07T15:55:11;3.80;;;3.50;;
1677;SDS011;6034;46.864;15.216;2024-01-07T15:57:39;5.05;;;3.72;;
1677;SDS011;6034;46.864;15.216;2024-01-07T16:00:10;3.97;;;2.97;;
1677;SDS011;6034;46.864;15.216;2024-01-07T16:02:38;5.35;;;2.95;;
1677;SDS011;6034;46.864;15.216;2024-01-07T16:05:07;4.70;;;3.33;;
1677;SDS011;6034;46.864;15.216;2024-01-07T16:07:34;3.92;;;2.72;;
1677;SDS011;6034;46.864;15.216;2024-01-07T16:10:01;3.88;;;3.47;;
1677;SDS011;6034;46.864;15.216;2024-01-07T16:12:29;3.60;;;2.97;;
1677;SDS011;6034;46.864;15.216;2024-01-07T16:14:57;3.75;;;3.15;;
1677;SDS011;6034;46.864;15.216;2024-01-07T16:17:24;3.08;;;2.70;;
1677;SDS011;6034;46.864;15.216;2024-01-07T16:19:52;2.75;;;2.17;;
1677;SDS011;6034;46.864;15.216;2024-01-07T16:22:21;4.15;;;3.00;;
1677;SDS011;6034;46.864;15.216;2024-01-07T16:24:48;4.78;;;2.80;;
1677;SDS011;6034;46.864;15.216;2024-01-07T16:27:15;3.15;;;2.10;;
1677;SDS011;6034;46.864;15.216;2024-01-07T16:29:44;4.15;;;3.15;;
1677;SDS011;6034;46.864;15.216;2024-01-07T16:32:11;3.50;;;3.13;;
1677;SDS011;6034;46.864;15.216;2024-01-07T16:34:39;4.70;;;3.60;;
1677;SDS011;6034;46.864;15.216;2024-01-07T16:37:06;4.30;;;3.90;;
1677;SDS011;6034;46.864;15.216;2024-01-07T16:39:35;4.30;;;2.97;;
1677;SDS011;6034;46.864;15.216;2024-01-07T16:42:03;5.28;;;4.45;;
1677;SDS011;6034;46.864;15.216;2024-01-07T16:44:31;4.80;;;3.78;;
1677;SDS011;6034;46.864;15.216;2024-01-07T16:46:58;4.43;;;3.70;;
1677;SDS011;6034;46.864;15.216;2024-01-07T16:49:26;4.82;;;3.65;;
1677;SDS011;6034;46.864;15.216;2024-01-07T16:51:53;4.68;;;3.97;;
1677;SDS011;6034;46.864;15.216;2024-01-07T16:54:21;3.78;;;3.38;;
1677;SDS011;6034;46.864;15.216;2024-01-07T16:56:50;3.85;;;3.47;;
1677;SDS011;6034;46.864;15.216;2024-01-07T16:59:17;6.38;;;3.92;;
1677;SDS011;6034;46.864;15.216;2024-01-07T17:01:46;6.65;;;5.55;;
1677;SDS011;6034;46.864;15.216;2024-01-07T17:04:14;6.70;;;4.70;;
1677;SDS011;6034;46.864;15.216;2024-01-07T17:06:41;6.80;;;4.45;;
1677;SDS011;6034;46.864;15.216;2024-01-07T17:09:09;5.63;;;4.50;;
1677;SDS011;6034;46.864;15.216;2024-01-07T17:11:36;5.20;;;4.30;;
1677;SDS011;6034;46.864;15.216;2024-01-07T17:14:05;5.35;;;4.70;;
1677;SDS011;6034;46.864;15.216;2024-01-07T17:16:33;5.30;;;4.78;;
1677;SDS011;6034;46.864;15.216;2024-01-07T17:19:00;7.07;;;5.07;;
1677;SDS011;6034;46.864;15.216;2024-01-07T17:21:28;5.93;;;5.05;;
1677;SDS011;6034;46.864;15.216;2024-01-07T17:23:55;7.20;;;5.78;;
1677;SDS011;6034;46.864;15.216;2024-01-07T17:26:23;7.10;;;6.40;;
1677;SDS011;6034;46.864;15.216;2024-01-07T17:28:50;7.80;;;6.03;;
1677;SDS011;6034;46.864;15.216;2024-01-07T17:31:19;6.95;;;6.07;;
1677;SDS011;6034;46.864;15.216;2024-01-07T17:33:46;7.13;;;6.43;;
1677;SDS011;6034;46.864;15.216;2024-01-07T17:36:14;5.97;;;5.38;;
1677;SDS011;6034;46.864;15.216;2024-01-07T17:38:41;6.10;;;5.22;;
1677;SDS011;6034;46.864;15.216;2024-01-07T17:41:09;6.00;;;5.20;;
1677;SDS011;6034;46.864;15.216;2024-01-07T17:43:38;6.30;;;5.30;;
1677;SDS011;6034;46.864;15.216;2024-01-07T17:46:06;6.30;;;5.70;;
1677;SDS011;6034;46.864;15.216;2024-01-07T17:48:38;6.28;;;5.68;;
1677;SDS011;6034;46.864;15.216;2024-01-07T17:51:06;7.65;;;6.32;;
1677;SDS011;6034;46.864;15.216;2024-01-07T17:53:33;7.22;;;6.18;;
1677;SDS011;6034;46.864;15.216;2024-01-07T17:56:06;8.27;;;6.88;;
1677;SDS011;6034;46.864;15.216;2024-01-07T17:58:33;7.25;;;6.55;;
1677;SDS011;6034;46.864;15.216;2024-01-07T18:01:00;8.93;;;7.45;;
1677;SDS011;6034;46.864;15.216;2024-01-07T18:03:28;9.02;;;8.13;;
1677;SDS011;6034;46.864;15.216;2024-01-07T18:05:57;13.85;;;9.73;;
1677;SDS011;6034;46.864;15.216;2024-01-07T18:08:26;10.82;;;9.25;;
1677;SDS011;6034;46.864;15.216;2024-01-07T18:10:53;9.82;;;8.82;;
1677;SDS011;6034;46.864;15.216;2024-01-07T18:13:21;11.73;;;8.98;;
1677;SDS011;6034;46.864;15.216;2024-01-07T18:15:49;10.40;;;9.25;;
1677;SDS011;6034;46.864;15.216;2024-01-07T18:18:17;11.90;;;9.35;;
1677;SDS011;6034;46.864;15.216;2024-01-07T18:20:45;12.05;;;10.50;;
1677;SDS011;6034;46.864;15.216;2024-01-07T18:23:14;11.43;;;10.18;;
1677;SDS011;6034;46.864;15.216;2024-01-07T18:25:41;12.38;;;9.13;;
1677;SDS011;6034;46.864;15.216;2024-01-07T18:28:09;10.40;;;9.27;;
1677;SDS011;6034;46.864;15.216;2024-01-07T18:30:37;57.28;;;14.90;;
1677;SDS011;6034;46.864;15.216;2024-01-07T18:33:04;10.18;;;9.18;;
1677;SDS011;6034;46.864;15.216;2024-01-07T18:35:32;11.32;;;9.07;;
1677;SDS011;6034;46.864;15.216;2024-01-07T18:38:01;10.80;;;9.32;;
1677;SDS011;6034;46.864;15.216;2024-01-07T18:40:30;12.57;;;9.80;;
1677;SDS011;6034;46.864;15.216;2024-01-07T18:42:58;10.98;;;8.98;;
1677;SDS011;6034;46.864;15.216;2024-01-07T18:45:26;14.27;;;10.13;;
1677;SDS011;6034;46.864;15.216;2024-01-07T18:47:54;47.47;;;13.85;;
1677;SDS011;6034;46.864;15.216;2024-01-07T18:50:22;14.30;;;11.75;;
1677;SDS011;6034;46.864;15.216;2024-01-07T18:52:49;12.48;;;11.02;;
1677;SDS011;6034;46.864;15.216;2024-01-07T18:55:17;180.73;;;27.13;;
1677;SDS011;6034;46.864;15.216;2024-01-07T18:57:46;170.82;;;28.13;;
1677;SDS011;6034;46.864;15.216;2024-01-07T19:00:14;16.42;;;12.45;;
1677;SDS011;6034;46.864;15.216;2024-01-07T19:02:43;253.35;;;34.00;;
1677;SDS011;6034;46.864;15.216;2024-01-07T19:05:11;15.73;;;13.10;;
1677;SDS011;6034;46.864;15.216;2024-01-07T19:07:39;17.00;;;11.68;;
1677;SDS011;6034;46.864;15.216;2024-01-07T19:10:07;14.63;;;13.02;;
1677;SDS011;6034;46.864;15.216;2024-01-07T19:12:36;14.23;;;11.57;;
1677;SDS011;6034;46.864;15.216;2024-01-07T19:15:06;13.55;;;12.00;;
1677;SDS011;6034;46.864;15.216;2024-01-07T19:17:34;15.40;;;13.80;;
1677;SDS011;6034;46.864;15.216;2024-01-07T19:20:02;13.65;;;11.68;;
1677;SDS011;6034;46.864;15.216;2024-01-07T19:22:32;12.23;;;10.95;;
1677;SDS011;6034;46.864;15.216;2024-01-07T19:25:05;13.88;;;11.68;;
1677;SDS011;6034;46.864;15.216;2024-01-07T19:27:34;14.40;;;12.90;;
1677;SDS011;6034;46.864;15.216;2024-01-07T19:30:10;16.25;;;11.48;;
1677;SDS011;6034;46.864;15.216;2024-01-07T19:32:37;15.30;;;11.27;;
1677;SDS011;6034;46.864;15.216;2024-01-07T19:35:06;10.95;;;9.70;;
1677;SDS011;6034;46.864;15.216;2024-01-07T19:37:34;12.73;;;11.07;;
1677;SDS011;6034;46.864;15.216;2024-01-07T19:40:01;11.88;;;10.40;;
1677;SDS011;6034;46.864;15.216;2024-01-07T19:42:29;12.95;;;11.10;;
1677;SDS011;6034;46.864;15.216;2024-01-07T19:45:01;239.48;;;35.33;;
1677;SDS011;6034;46.864;15.216;2024-01-07T19:47:30;127.72;;;23.95;;
1677;SDS011;6034;46.864;15.216;2024-01-07T19:49:58;529.67;;;59.65;;
1677;SDS011;6034;46.864;15.216;2024-01-07T19:52:25;19.23;;;14.70;;
1677;SDS011;6034;46.864;15.216;2024-01-07T19:54:53;116.90;;;27.20;;
1677;SDS011;6034;46.864;15.216;2024-01-07T19:57:22;356.35;;;46.35;;
1677;SDS011;6034;46.864;15.216;2024-01-07T19:59:55;232.38;;;32.40;;
1677;SDS011;6034;46.864;15.216;2024-01-07T20:02:22;18.17;;;15.38;;
1677;SDS011;6034;46.864;15.216;2024-01-07T20:04:51;78.05;;;18.58;;
1677;SDS011;6034;46.864;15.216;2024-01-07T20:07:18;35.13;;;15.35;;
1677;SDS011;6034;46.864;15.216;2024-01-07T20:09:46;22.05;;;14.15;;
1677;SDS011;6034;46.864;15.216;2024-01-07T20:12:14;29.92;;;14.65;;
1677;SDS011;6034;46.864;15.216;2024-01-07T20:14:41;33.40;;;16.55;;
1677;SDS011;6034;46.864;15.216;2024-01-07T20:17:09;9.38;;;7.35;;
1677;SDS011;6034;46.864;15.216;2024-01-07T20:19:37;11.38;;;9.40;;
1677;SDS011;6034;46.864;15.216;2024-01-07T20:22:06;9.35;;;7.68;;
1677;SDS011;6034;46.864;15.216;2024-01-07T20:24:35;10.25;;;8.10;;
1677;SDS011;6034;46.864;15.216;2024-01-07T20:27:03;5.75;;;3.58;;
1677;SDS011;6034;46.864;15.216;2024-01-07T20:29:31;9.68;;;8.50;;
1677;SDS011;6034;46.864;15.216;2024-01-07T20:32:00;7.38;;;4.60;;
1677;SDS011;6034;46.864;15.216;2024-01-07T20:34:28;4.90;;;4.50;;
1677;SDS011;6034;46.864;15.216;2024-01-07T20:36:55;4.15;;;3.05;;
1677;SDS011;6034;46.864;15.216;2024-01-07T20:39:24;3.35;;;3.05;;
1677;SDS011;6034;46.864;15.216;2024-01-07T20:41:51;5.65;;;3.67;;
1677;SDS011;6034;46.864;15.216;2024-01-07T20:44:20;12.32;;;6.80;;
1677;SDS011;6034;46.864;15.216;2024-01-07T20:46:47;10.15;;;6.93;;
1677;SDS011;6034;46.864;15.216;2024-01-07T20:49:15;9.48;;;6.75;;
1677;SDS011;6034;46.864;15.216;2024-01-07T20:51:42;11.90;;;8.00;;
1677;SDS011;6034;46.864;15.216;2024-01-07T20:54:10;8.55;;;6.35;;
1677;SDS011;6034;46.864;15.216;2024-01-07T20:56:39;5.75;;;5.15;;
1677;SDS011;6034;46.864;15.216;2024-01-07T20:59:06;6.22;;;3.42;;
1677;SDS011;6034;46.864;15.216;2024-01-07T21:01:34;5.13;;;4.05;;
1677;SDS011;6034;46.864;15.216;2024-01-07T21:04:02;7.63;;;4.40;;
1677;SDS011;6034;46.864;15.216;2024-01-07T21:06:29;4.65;;;3.75;;
1677;SDS011;6034;46.864;15.216;2024-01-07T21:08:57;5.50;;;4.25;;
1677;SDS011;6034;46.864;15.216;2024-01-07T21:11:25;6.15;;;3.83;;
1677;SDS011;6034;46.864;15.216;2024-01-07T21:13:54;3.20;;;2.75;;
1677;SDS011;6034;46.864;15.216;2024-01-07T21:16:21;4.18;;;2.90;;
1677;SDS011;6034;46.864;15.216;2024-01-07T21:18:49;3.40;;;2.60;;
1677;SDS011;6034;46.864;15.216;2024-01-07T21:21:17;3.40;;;2.83;;
1677;SDS011;6034;46.864;15.216;2024-01-07T21:23:44;5.22;;;3.30;;
1677;SDS011;6034;46.864;15.216;2024-01-07T21:26:13;3.85;;;2.95;;
1677;SDS011;6034;46.864;15.216;2024-01-07T21:28:41;4.32;;;3.80;;
1677;SDS011;6034;46.864;15.216;2024-01-07T21:31:10;3.38;;;2.90;;
1677;SDS011;6034;46.864;15.216;2024-01-07T21:33:44;5.68;;;3.70;;
1677;SDS011;6034;46.864;15.216;2024-01-07T21:36:11;6.28;;;4.30;;
1677;SDS011;6034;46.864;15.216;2024-01-07T21:38:41;4.03;;;3.20;;
1677;SDS011;6034;46.864;15.216;2024-01-07T21:41:11;5.13;;;4.57;;
1677;SDS011;6034;46.864;15.216;2024-01-07T21:43:39;5.25;;;3.38;;
1677;SDS011;6034;46.864;15.216;2024-01-07T21:46:07;4.90;;;3.35;;
1677;SDS011;6034;46.864;15.216;2024-01-07T21:48:37;4.47;;;3.40;;
1677;SDS011;6034;46.864;15.216;2024-01-07T21:51:05;6.35;;;3.30;;
1677;SDS011;6034;46.864;15.216;2024-01-07T21:53:34;4.55;;;3.42;;
1677;SDS011;6034;46.864;15.216;2024-01-07T21:56:01;3.67;;;3.03;;
1677;SDS011;6034;46.864;15.216;2024-01-07T21:58:29;5.28;;;3.63;;
